sensor_id;sensor_type;location;lat;lon;timestamp;P1;durP1;ratioP1;P2;durP2;ratioP2
1366;SDS011;16877;48.810;9.282;2023-03-23T00:00:35;4.70;;;1.97;;
1366;SDS011;16877;48.810;9.282;2023-03-23T00:03:02;3.20;;;1.80;;
1366;SDS011;16877;48.810;9.282;2023-03-23T00:05:31;5.00;;;1.43;;
1366;SDS011;16877;48.810;9.282;2023-03-23T00:08:01;3.30;;;1.70;;
1366;SDS011;16877;48.810;9.282;2023-03-23T00:10:29;2.23;;;1.27;;
1366;SDS011;16877;48.810;9.282;2023-03-23T00:12:57;2.63;;;1.60;;
1366;SDS011;16877;48.810;9.282;2023-03-23T00:15:29;2.90;;;1.53;;
1366;SDS011;16877;48.810;9.282;2023-03-23T00:17:58;2.70;;;1.50;;
1366;SDS011;16877;48.810;9.282;2023-03-23T00:20:30;3.70;;;1.53;;
1366;SDS011;16877;48.810;9.282;2023-03-23T00:23:05;3.40;;;1.40;;
1366;SDS011;16877;48.810;9.282;2023-03-23T00:25:32;2.47;;;1.10;;
1366;SDS011;16877;48.810;9.282;2023-03-23T00:27:59;3.30;;;1.73;;
1366;SDS011;16877;48.810;9.282;2023-03-23T00:30:29;2.60;;;1.27;;
1366;SDS011;16877;48.810;9.282;2023-03-23T00:33:07;2.50;;;1.43;;
1366;SDS011;16877;48.810;9.282;2023-03-23T00:35:37;2.93;;;1.60;;
1366;SDS011;16877;48.810;9.282;2023-03-23T00:38:05;3.57;;;1.90;;
1366;SDS011;16877;48.810;9.282;2023-03-23T00:40:33;3.20;;;1.70;;
1366;SDS011;16877;48.810;9.282;2023-03-23T00:43:01;2.37;;;1.30;;
1366;SDS011;16877;48.810;9.282;2023-03-23T00:45:31;3.70;;;1.67;;
1366;SDS011;16877;48.810;9.282;2023-03-23T00:47:59;3.33;;;1.67;;
1366;SDS011;16877;48.810;9.282;2023-03-23T00:50:29;2.50;;;1.50;;
1366;SDS011;16877;48.810;9.282;2023-03-23T00:52:56;2.67;;;1.60;;
1366;SDS011;16877;48.810;9.282;2023-03-23T00:55:24;2.53;;;1.70;;
1366;SDS011;16877;48.810;9.282;2023-03-23T00:57:51;2.33;;;1.37;;
1366;SDS011;16877;48.810;9.282;2023-03-23T01:00:19;2.67;;;2.00;;
1366;SDS011;16877;48.810;9.282;2023-03-23T01:02:49;2.63;;;1.77;;
1366;SDS011;16877;48.810;9.282;2023-03-23T01:05:17;2.50;;;1.30;;
1366;SDS011;16877;48.810;9.282;2023-03-23T01:07:45;2.50;;;1.70;;
1366;SDS011;16877;48.810;9.282;2023-03-23T01:10:13;3.10;;;1.70;;
1366;SDS011;16877;48.810;9.282;2023-03-23T01:12:43;3.27;;;1.90;;
1366;SDS011;16877;48.810;9.282;2023-03-23T01:15:14;4.37;;;1.40;;
1366;SDS011;16877;48.810;9.282;2023-03-23T01:17:42;2.97;;;1.50;;
1366;SDS011;16877;48.810;9.282;2023-03-23T01:20:11;4.37;;;1.80;;
1366;SDS011;16877;48.810;9.282;2023-03-23T01:22:40;2.80;;;1.60;;
1366;SDS011;16877;48.810;9.282;2023-03-23T01:25:09;2.83;;;1.60;;
1366;SDS011;16877;48.810;9.282;2023-03-23T01:27:52;2.90;;;1.63;;
1366;SDS011;16877;48.810;9.282;2023-03-23T01:30:19;2.40;;;1.43;;
1366;SDS011;16877;48.810;9.282;2023-03-23T01:32:47;2.37;;;1.23;;
1366;SDS011;16877;48.810;9.282;2023-03-23T01:35:16;3.40;;;1.30;;
1366;SDS011;16877;48.810;9.282;2023-03-23T01:37:45;3.50;;;1.57;;
1366;SDS011;16877;48.810;9.282;2023-03-23T01:40:14;2.70;;;1.63;;
1366;SDS011;16877;48.810;9.282;2023-03-23T01:42:44;2.30;;;1.20;;
1366;SDS011;16877;48.810;9.282;2023-03-23T01:45:20;3.03;;;1.40;;
1366;SDS011;16877;48.810;9.282;2023-03-23T01:47:51;2.70;;;1.80;;
1366;SDS011;16877;48.810;9.282;2023-03-23T01:50:25;3.60;;;1.53;;
1366;SDS011;16877;48.810;9.282;2023-03-23T01:52:55;2.27;;;1.57;;
1366;SDS011;16877;48.810;9.282;2023-03-23T01:55:26;3.47;;;1.80;;
1366;SDS011;16877;48.810;9.282;2023-03-23T01:57:55;2.63;;;1.60;;
1366;SDS011;16877;48.810;9.282;2023-03-23T02:00:23;2.90;;;1.40;;
1366;SDS011;16877;48.810;9.282;2023-03-23T02:02:53;3.10;;;1.40;;
1366;SDS011;16877;48.810;9.282;2023-03-23T02:05:26;3.17;;;1.70;;
1366;SDS011;16877;48.810;9.282;2023-03-23T02:07:56;3.53;;;1.77;;
1366;SDS011;16877;48.810;9.282;2023-03-23T02:10:27;2.80;;;1.60;;
1366;SDS011;16877;48.810;9.282;2023-03-23T02:12:56;2.50;;;1.60;;
1366;SDS011;16877;48.810;9.282;2023-03-23T02:15:24;3.27;;;1.70;;
1366;SDS011;16877;48.810;9.282;2023-03-23T02:17:56;2.70;;;1.47;;
1366;SDS011;16877;48.810;9.282;2023-03-23T02:26:32;2.43;;;1.23;;
1366;SDS011;16877;48.810;9.282;2023-03-23T02:29:07;2.67;;;1.57;;
1366;SDS011;16877;48.810;9.282;2023-03-23T02:31:56;3.07;;;1.40;;
1366;SDS011;16877;48.810;9.282;2023-03-23T02:34:38;2.90;;;1.93;;
1366;SDS011;16877;48.810;9.282;2023-03-23T02:37:09;2.87;;;1.60;;
1366;SDS011;16877;48.810;9.282;2023-03-23T02:39:41;3.00;;;1.80;;
1366;SDS011;16877;48.810;9.282;2023-03-23T02:42:13;3.30;;;1.43;;
1366;SDS011;16877;48.810;9.282;2023-03-23T02:44:45;2.50;;;1.60;;
1366;SDS011;16877;48.810;9.282;2023-03-23T02:47:14;4.50;;;1.60;;
1366;SDS011;16877;48.810;9.282;2023-03-23T02:49:47;2.47;;;1.53;;
1366;SDS011;16877;48.810;9.282;2023-03-23T02:52:17;3.30;;;1.73;;
1366;SDS011;16877;48.810;9.282;2023-03-23T02:54:48;3.80;;;2.00;;
1366;SDS011;16877;48.810;9.282;2023-03-23T02:57:17;3.03;;;1.90;;
1366;SDS011;16877;48.810;9.282;2023-03-23T02:59:46;3.40;;;1.33;;
1366;SDS011;16877;48.810;9.282;2023-03-23T03:02:15;2.00;;;1.40;;
1366;SDS011;16877;48.810;9.282;2023-03-23T03:04:48;3.40;;;1.63;;
1366;SDS011;16877;48.810;9.282;2023-03-23T03:07:31;2.33;;;1.40;;
1366;SDS011;16877;48.810;9.282;2023-03-23T03:10:04;2.60;;;1.90;;
1366;SDS011;16877;48.810;9.282;2023-03-23T03:12:36;3.43;;;1.70;;
1366;SDS011;16877;48.810;9.282;2023-03-23T03:15:12;3.17;;;1.53;;
1366;SDS011;16877;48.810;9.282;2023-03-23T03:17:50;4.57;;;1.80;;
1366;SDS011;16877;48.810;9.282;2023-03-23T03:20:26;2.20;;;1.40;;
1366;SDS011;16877;48.810;9.282;2023-03-23T03:22:56;3.03;;;1.90;;
1366;SDS011;16877;48.810;9.282;2023-03-23T03:25:25;3.07;;;1.50;;
1366;SDS011;16877;48.810;9.282;2023-03-23T03:27:54;3.13;;;1.90;;
1366;SDS011;16877;48.810;9.282;2023-03-23T03:30:22;2.30;;;1.53;;
1366;SDS011;16877;48.810;9.282;2023-03-23T03:32:53;2.67;;;1.60;;
1366;SDS011;16877;48.810;9.282;2023-03-23T03:35:21;4.00;;;1.40;;
1366;SDS011;16877;48.810;9.282;2023-03-23T03:37:51;2.80;;;1.70;;
1366;SDS011;16877;48.810;9.282;2023-03-23T03:40:19;2.93;;;1.20;;
1366;SDS011;16877;48.810;9.282;2023-03-23T03:42:48;3.47;;;1.50;;
1366;SDS011;16877;48.810;9.282;2023-03-23T03:45:17;2.90;;;1.50;;
1366;SDS011;16877;48.810;9.282;2023-03-23T03:47:52;2.27;;;1.40;;
1366;SDS011;16877;48.810;9.282;2023-03-23T03:50:19;2.53;;;1.57;;
1366;SDS011;16877;48.810;9.282;2023-03-23T03:52:55;3.30;;;1.83;;
1366;SDS011;16877;48.810;9.282;2023-03-23T03:55:24;2.70;;;1.70;;
1366;SDS011;16877;48.810;9.282;2023-03-23T03:57:53;3.00;;;1.83;;
1366;SDS011;16877;48.810;9.282;2023-03-23T04:00:20;3.10;;;1.83;;
1366;SDS011;16877;48.810;9.282;2023-03-23T04:02:49;4.43;;;2.20;;
1366;SDS011;16877;48.810;9.282;2023-03-23T04:05:22;2.37;;;1.60;;
1366;SDS011;16877;48.810;9.282;2023-03-23T04:07:49;2.93;;;1.37;;
1366;SDS011;16877;48.810;9.282;2023-03-23T04:10:37;2.60;;;1.60;;
1366;SDS011;16877;48.810;9.282;2023-03-23T04:13:09;3.07;;;1.67;;
1366;SDS011;16877;48.810;9.282;2023-03-23T04:15:38;4.87;;;2.10;;
1366;SDS011;16877;48.810;9.282;2023-03-23T04:18:05;3.23;;;1.33;;
1366;SDS011;16877;48.810;9.282;2023-03-23T04:20:34;2.33;;;1.50;;
1366;SDS011;16877;48.810;9.282;2023-03-23T04:23:04;2.93;;;1.60;;
1366;SDS011;16877;48.810;9.282;2023-03-23T04:25:32;3.00;;;1.70;;
1366;SDS011;16877;48.810;9.282;2023-03-23T04:28:02;2.43;;;1.47;;
1366;SDS011;16877;48.810;9.282;2023-03-23T04:30:30;2.30;;;1.10;;
1366;SDS011;16877;48.810;9.282;2023-03-23T04:33:17;2.83;;;1.60;;
1366;SDS011;16877;48.810;9.282;2023-03-23T04:35:44;2.53;;;1.60;;
1366;SDS011;16877;48.810;9.282;2023-03-23T04:38:13;2.53;;;1.40;;
1366;SDS011;16877;48.810;9.282;2023-03-23T04:40:56;3.10;;;1.83;;
1366;SDS011;16877;48.810;9.282;2023-03-23T04:43:27;3.47;;;1.40;;
1366;SDS011;16877;48.810;9.282;2023-03-23T04:46:07;2.47;;;1.47;;
1366;SDS011;16877;48.810;9.282;2023-03-23T04:48:35;2.40;;;1.80;;
1366;SDS011;16877;48.810;9.282;2023-03-23T04:51:06;2.30;;;1.70;;
1366;SDS011;16877;48.810;9.282;2023-03-23T04:53:34;3.10;;;1.60;;
1366;SDS011;16877;48.810;9.282;2023-03-23T04:56:04;3.57;;;1.57;;
1366;SDS011;16877;48.810;9.282;2023-03-23T04:58:34;2.80;;;1.63;;
1366;SDS011;16877;48.810;9.282;2023-03-23T05:01:02;2.20;;;1.30;;
1366;SDS011;16877;48.810;9.282;2023-03-23T05:03:31;3.10;;;1.13;;
1366;SDS011;16877;48.810;9.282;2023-03-23T05:06:01;2.70;;;1.40;;
1366;SDS011;16877;48.810;9.282;2023-03-23T05:08:28;3.23;;;1.70;;
1366;SDS011;16877;48.810;9.282;2023-03-23T05:10:59;2.60;;;1.73;;
1366;SDS011;16877;48.810;9.282;2023-03-23T05:13:28;3.00;;;1.43;;
1366;SDS011;16877;48.810;9.282;2023-03-23T05:15:57;2.53;;;1.40;;
1366;SDS011;16877;48.810;9.282;2023-03-23T05:18:25;2.77;;;1.50;;
1366;SDS011;16877;48.810;9.282;2023-03-23T05:20:52;2.53;;;1.50;;
1366;SDS011;16877;48.810;9.282;2023-03-23T05:23:19;3.30;;;1.80;;
1366;SDS011;16877;48.810;9.282;2023-03-23T05:25:52;2.43;;;1.63;;
1366;SDS011;16877;48.810;9.282;2023-03-23T05:28:20;3.30;;;2.10;;
1366;SDS011;16877;48.810;9.282;2023-03-23T05:31:00;2.40;;;1.60;;
1366;SDS011;16877;48.810;9.282;2023-03-23T05:33:29;2.63;;;1.57;;
1366;SDS011;16877;48.810;9.282;2023-03-23T05:35:57;2.63;;;1.57;;
1366;SDS011;16877;48.810;9.282;2023-03-23T05:38:27;3.23;;;1.60;;
1366;SDS011;16877;48.810;9.282;2023-03-23T05:40:57;2.60;;;1.50;;
1366;SDS011;16877;48.810;9.282;2023-03-23T05:43:26;2.50;;;1.50;;
1366;SDS011;16877;48.810;9.282;2023-03-23T05:46:11;2.90;;;1.90;;
1366;SDS011;16877;48.810;9.282;2023-03-23T05:48:45;2.90;;;1.83;;
1366;SDS011;16877;48.810;9.282;2023-03-23T05:51:16;3.43;;;2.20;;
1366;SDS011;16877;48.810;9.282;2023-03-23T05:54:03;2.60;;;1.60;;
1366;SDS011;16877;48.810;9.282;2023-03-23T05:56:33;2.63;;;2.00;;
1366;SDS011;16877;48.810;9.282;2023-03-23T05:59:02;4.10;;;2.10;;
1366;SDS011;16877;48.810;9.282;2023-03-23T06:01:35;2.20;;;1.30;;
1366;SDS011;16877;48.810;9.282;2023-03-23T06:04:04;3.00;;;2.20;;
1366;SDS011;16877;48.810;9.282;2023-03-23T06:06:31;2.90;;;1.57;;
1366;SDS011;16877;48.810;9.282;2023-03-23T06:08:59;2.83;;;1.93;;
1366;SDS011;16877;48.810;9.282;2023-03-23T06:11:26;3.03;;;1.80;;
1366;SDS011;16877;48.810;9.282;2023-03-23T06:14:04;2.47;;;1.63;;
1366;SDS011;16877;48.810;9.282;2023-03-23T06:16:32;3.20;;;1.90;;
1366;SDS011;16877;48.810;9.282;2023-03-23T06:19:01;3.50;;;1.60;;
1366;SDS011;16877;48.810;9.282;2023-03-23T06:21:30;6.17;;;1.67;;
1366;SDS011;16877;48.810;9.282;2023-03-23T06:23:58;2.53;;;1.53;;
1366;SDS011;16877;48.810;9.282;2023-03-23T06:26:27;3.40;;;2.00;;
1366;SDS011;16877;48.810;9.282;2023-03-23T06:29:01;3.03;;;1.60;;
1366;SDS011;16877;48.810;9.282;2023-03-23T06:31:39;3.50;;;1.90;;
1366;SDS011;16877;48.810;9.282;2023-03-23T06:34:13;2.97;;;2.07;;
1366;SDS011;16877;48.810;9.282;2023-03-23T06:36:42;2.27;;;1.60;;
1366;SDS011;16877;48.810;9.282;2023-03-23T06:39:12;3.67;;;2.17;;
1366;SDS011;16877;48.810;9.282;2023-03-23T06:41:40;3.20;;;1.63;;
1366;SDS011;16877;48.810;9.282;2023-03-23T06:44:22;2.80;;;1.50;;
1366;SDS011;16877;48.810;9.282;2023-03-23T06:46:53;3.17;;;1.60;;
1366;SDS011;16877;48.810;9.282;2023-03-23T06:49:27;3.87;;;1.97;;
1366;SDS011;16877;48.810;9.282;2023-03-23T06:51:57;3.27;;;2.23;;
1366;SDS011;16877;48.810;9.282;2023-03-23T06:54:27;3.53;;;1.93;;
1366;SDS011;16877;48.810;9.282;2023-03-23T06:56:56;2.63;;;1.70;;
1366;SDS011;16877;48.810;9.282;2023-03-23T06:59:23;2.80;;;1.73;;
1366;SDS011;16877;48.810;9.282;2023-03-23T07:01:51;4.37;;;1.80;;
1366;SDS011;16877;48.810;9.282;2023-03-23T07:04:20;3.17;;;1.80;;
1366;SDS011;16877;48.810;9.282;2023-03-23T07:06:55;2.50;;;1.70;;
1366;SDS011;16877;48.810;9.282;2023-03-23T07:09:23;3.10;;;1.90;;
1366;SDS011;16877;48.810;9.282;2023-03-23T07:11:51;2.80;;;1.63;;
1366;SDS011;16877;48.810;9.282;2023-03-23T07:14:18;3.30;;;2.40;;
1366;SDS011;16877;48.810;9.282;2023-03-23T07:16:47;2.80;;;1.70;;
1366;SDS011;16877;48.810;9.282;2023-03-23T07:19:15;3.33;;;1.80;;
1366;SDS011;16877;48.810;9.282;2023-03-23T07:21:43;2.67;;;1.73;;
1366;SDS011;16877;48.810;9.282;2023-03-23T07:24:27;2.57;;;1.50;;
1366;SDS011;16877;48.810;9.282;2023-03-23T07:26:54;3.43;;;1.80;;
1366;SDS011;16877;48.810;9.282;2023-03-23T07:29:22;3.83;;;2.40;;
1366;SDS011;16877;48.810;9.282;2023-03-23T07:31:50;5.00;;;2.13;;
1366;SDS011;16877;48.810;9.282;2023-03-23T07:34:28;3.40;;;2.30;;
1366;SDS011;16877;48.810;9.282;2023-03-23T07:37:10;3.87;;;2.40;;
1366;SDS011;16877;48.810;9.282;2023-03-23T07:39:40;3.47;;;2.37;;
1366;SDS011;16877;48.810;9.282;2023-03-23T07:42:07;3.30;;;2.20;;
1366;SDS011;16877;48.810;9.282;2023-03-23T07:44:35;5.13;;;2.40;;
1366;SDS011;16877;48.810;9.282;2023-03-23T07:47:17;3.07;;;1.80;;
1366;SDS011;16877;48.810;9.282;2023-03-23T07:49:45;4.23;;;2.30;;
1366;SDS011;16877;48.810;9.282;2023-03-23T07:52:15;3.17;;;1.97;;
1366;SDS011;16877;48.810;9.282;2023-03-23T07:54:44;4.20;;;2.40;;
1366;SDS011;16877;48.810;9.282;2023-03-23T07:57:11;3.90;;;2.80;;
1366;SDS011;16877;48.810;9.282;2023-03-23T07:59:39;3.97;;;2.47;;
1366;SDS011;16877;48.810;9.282;2023-03-23T08:02:07;3.63;;;2.10;;
1366;SDS011;16877;48.810;9.282;2023-03-23T08:04:36;4.10;;;2.47;;
1366;SDS011;16877;48.810;9.282;2023-03-23T08:07:03;3.40;;;2.27;;
1366;SDS011;16877;48.810;9.282;2023-03-23T08:09:31;4.40;;;2.70;;
1366;SDS011;16877;48.810;9.282;2023-03-23T08:12:00;3.70;;;2.40;;
1366;SDS011;16877;48.810;9.282;2023-03-23T08:14:29;3.10;;;1.70;;
1366;SDS011;16877;48.810;9.282;2023-03-23T08:16:57;3.50;;;1.80;;
1366;SDS011;16877;48.810;9.282;2023-03-23T08:19:25;3.27;;;1.97;;
1366;SDS011;16877;48.810;9.282;2023-03-23T08:21:52;3.83;;;2.37;;
1366;SDS011;16877;48.810;9.282;2023-03-23T08:24:20;3.30;;;1.70;;
1366;SDS011;16877;48.810;9.282;2023-03-23T08:26:47;3.40;;;2.20;;
1366;SDS011;16877;48.810;9.282;2023-03-23T08:29:20;2.80;;;1.93;;
1366;SDS011;16877;48.810;9.282;2023-03-23T08:31:50;2.73;;;1.80;;
1366;SDS011;16877;48.810;9.282;2023-03-23T08:34:17;4.60;;;1.83;;
1366;SDS011;16877;48.810;9.282;2023-03-23T08:36:45;4.00;;;2.00;;
1366;SDS011;16877;48.810;9.282;2023-03-23T08:39:12;3.10;;;1.87;;
1366;SDS011;16877;48.810;9.282;2023-03-23T08:41:41;3.60;;;1.90;;
1366;SDS011;16877;48.810;9.282;2023-03-23T08:44:09;3.10;;;2.40;;
1366;SDS011;16877;48.810;9.282;2023-03-23T08:46:39;6.43;;;2.37;;
1366;SDS011;16877;48.810;9.282;2023-03-23T08:49:10;3.17;;;2.37;;
1366;SDS011;16877;48.810;9.282;2023-03-23T08:51:37;6.47;;;1.93;;
1366;SDS011;16877;48.810;9.282;2023-03-23T08:54:07;2.47;;;1.73;;
1366;SDS011;16877;48.810;9.282;2023-03-23T08:56:34;2.93;;;2.03;;
1366;SDS011;16877;48.810;9.282;2023-03-23T08:59:02;4.60;;;2.23;;
1366;SDS011;16877;48.810;9.282;2023-03-23T09:01:40;3.67;;;2.10;;
1366;SDS011;16877;48.810;9.282;2023-03-23T09:04:29;3.57;;;2.20;;
1366;SDS011;16877;48.810;9.282;2023-03-23T09:06:56;2.90;;;1.83;;
1366;SDS011;16877;48.810;9.282;2023-03-23T09:09:24;3.67;;;1.53;;
1366;SDS011;16877;48.810;9.282;2023-03-23T09:11:52;2.50;;;1.80;;
1366;SDS011;16877;48.810;9.282;2023-03-23T09:14:21;3.00;;;1.97;;
1366;SDS011;16877;48.810;9.282;2023-03-23T09:16:48;3.40;;;1.80;;
1366;SDS011;16877;48.810;9.282;2023-03-23T09:19:33;4.47;;;2.30;;
1366;SDS011;16877;48.810;9.282;2023-03-23T09:22:01;3.57;;;1.70;;
1366;SDS011;16877;48.810;9.282;2023-03-23T09:24:28;3.60;;;2.07;;
1366;SDS011;16877;48.810;9.282;2023-03-23T09:26:56;3.90;;;1.70;;
1366;SDS011;16877;48.810;9.282;2023-03-23T09:29:24;3.93;;;1.83;;
1366;SDS011;16877;48.810;9.282;2023-03-23T09:31:52;3.30;;;1.60;;
1366;SDS011;16877;48.810;9.282;2023-03-23T09:34:19;4.17;;;1.90;;
1366;SDS011;16877;48.810;9.282;2023-03-23T09:39:38;3.90;;;1.73;;
1366;SDS011;16877;48.810;9.282;2023-03-23T09:42:08;2.50;;;1.80;;
1366;SDS011;16877;48.810;9.282;2023-03-23T09:44:50;2.60;;;1.67;;
1366;SDS011;16877;48.810;9.282;2023-03-23T09:47:30;2.70;;;1.80;;
1366;SDS011;16877;48.810;9.282;2023-03-23T09:50:14;2.93;;;1.70;;
1366;SDS011;16877;48.810;9.282;2023-03-23T09:52:47;7.00;;;2.17;;
1366;SDS011;16877;48.810;9.282;2023-03-23T09:55:20;4.30;;;2.53;;
1366;SDS011;16877;48.810;9.282;2023-03-23T09:57:59;2.37;;;1.40;;
1366;SDS011;16877;48.810;9.282;2023-03-23T10:00:51;4.23;;;1.73;;
1366;SDS011;16877;48.810;9.282;2023-03-23T10:03:26;3.90;;;1.57;;
1366;SDS011;16877;48.810;9.282;2023-03-23T10:05:58;3.43;;;1.83;;
1366;SDS011;16877;48.810;9.282;2023-03-23T10:08:27;4.30;;;1.60;;
1366;SDS011;16877;48.810;9.282;2023-03-23T10:11:12;2.43;;;1.53;;
1366;SDS011;16877;48.810;9.282;2023-03-23T10:13:53;2.67;;;1.40;;
1366;SDS011;16877;48.810;9.282;2023-03-23T10:16:31;2.47;;;1.43;;
1366;SDS011;16877;48.810;9.282;2023-03-23T10:19:17;4.00;;;1.60;;
1366;SDS011;16877;48.810;9.282;2023-03-23T10:21:50;3.07;;;1.60;;
1366;SDS011;16877;48.810;9.282;2023-03-23T10:24:23;7.33;;;1.30;;
1366;SDS011;16877;48.810;9.282;2023-03-23T10:26:58;2.93;;;1.80;;
1366;SDS011;16877;48.810;9.282;2023-03-23T10:29:35;3.40;;;1.97;;
1366;SDS011;16877;48.810;9.282;2023-03-23T10:32:08;3.40;;;1.63;;
1366;SDS011;16877;48.810;9.282;2023-03-23T10:34:42;3.70;;;1.23;;
1366;SDS011;16877;48.810;9.282;2023-03-23T10:37:17;2.60;;;1.50;;
1366;SDS011;16877;48.810;9.282;2023-03-23T10:39:51;2.80;;;1.70;;
1366;SDS011;16877;48.810;9.282;2023-03-23T10:42:24;2.83;;;1.43;;
1366;SDS011;16877;48.810;9.282;2023-03-23T10:44:56;3.00;;;2.10;;
1366;SDS011;16877;48.810;9.282;2023-03-23T10:47:26;2.80;;;1.90;;
1366;SDS011;16877;48.810;9.282;2023-03-23T10:49:56;2.73;;;1.93;;
1366;SDS011;16877;48.810;9.282;2023-03-23T10:52:27;2.70;;;1.43;;
1366;SDS011;16877;48.810;9.282;2023-03-23T10:55:03;2.50;;;1.20;;
1366;SDS011;16877;48.810;9.282;2023-03-23T10:57:34;2.63;;;1.30;;
1366;SDS011;16877;48.810;9.282;2023-03-23T11:00:03;2.47;;;1.40;;
1366;SDS011;16877;48.810;9.282;2023-03-23T11:02:37;2.87;;;1.67;;
1366;SDS011;16877;48.810;9.282;2023-03-23T11:05:16;4.07;;;1.67;;
1366;SDS011;16877;48.810;9.282;2023-03-23T11:07:49;2.53;;;1.40;;
1366;SDS011;16877;48.810;9.282;2023-03-23T11:10:22;3.50;;;1.50;;
1366;SDS011;16877;48.810;9.282;2023-03-23T11:12:53;2.37;;;1.50;;
1366;SDS011;16877;48.810;9.282;2023-03-23T11:15:25;2.97;;;1.50;;
1366;SDS011;16877;48.810;9.282;2023-03-23T11:17:59;2.77;;;1.57;;
1366;SDS011;16877;48.810;9.282;2023-03-23T11:20:33;2.87;;;1.50;;
1366;SDS011;16877;48.810;9.282;2023-03-23T11:23:19;2.87;;;1.63;;
1366;SDS011;16877;48.810;9.282;2023-03-23T11:25:54;3.27;;;1.43;;
1366;SDS011;16877;48.810;9.282;2023-03-23T11:28:25;2.80;;;1.57;;
1366;SDS011;16877;48.810;9.282;2023-03-23T11:30:57;2.70;;;1.73;;
1366;SDS011;16877;48.810;9.282;2023-03-23T11:33:30;2.40;;;1.43;;
1366;SDS011;16877;48.810;9.282;2023-03-23T11:36:20;2.47;;;1.40;;
1366;SDS011;16877;48.810;9.282;2023-03-23T11:38:55;2.63;;;1.40;;
1366;SDS011;16877;48.810;9.282;2023-03-23T11:41:24;3.33;;;2.13;;
1366;SDS011;16877;48.810;9.282;2023-03-23T11:43:56;2.50;;;1.87;;
1366;SDS011;16877;48.810;9.282;2023-03-23T11:46:28;2.73;;;1.73;;
1366;SDS011;16877;48.810;9.282;2023-03-23T11:49:01;3.20;;;1.70;;
1366;SDS011;16877;48.810;9.282;2023-03-23T11:51:45;3.10;;;1.67;;
1366;SDS011;16877;48.810;9.282;2023-03-23T11:54:31;2.90;;;1.70;;
1366;SDS011;16877;48.810;9.282;2023-03-23T11:57:07;2.53;;;1.50;;
1366;SDS011;16877;48.810;9.282;2023-03-23T11:59:38;2.90;;;1.87;;
1366;SDS011;16877;48.810;9.282;2023-03-23T12:02:23;2.60;;;1.53;;
1366;SDS011;16877;48.810;9.282;2023-03-23T12:08:02;48.07;;;8.00;;
1366;SDS011;16877;48.810;9.282;2023-03-23T12:10:39;33.33;;;5.80;;
1366;SDS011;16877;48.810;9.282;2023-03-23T12:13:18;14.50;;;3.47;;
1366;SDS011;16877;48.810;9.282;2023-03-23T12:15:57;19.93;;;4.47;;
1366;SDS011;16877;48.810;9.282;2023-03-23T12:18:32;25.93;;;5.73;;
1366;SDS011;16877;48.810;9.282;2023-03-23T12:21:10;19.93;;;4.30;;
1366;SDS011;16877;48.810;9.282;2023-03-23T12:23:45;8.43;;;2.80;;
1366;SDS011;16877;48.810;9.282;2023-03-23T12:26:21;19.60;;;3.57;;
1366;SDS011;16877;48.810;9.282;2023-03-23T12:29:12;13.53;;;3.00;;
1366;SDS011;16877;48.810;9.282;2023-03-23T12:31:59;18.37;;;4.37;;
1366;SDS011;16877;48.810;9.282;2023-03-23T12:34:41;45.73;;;5.50;;
1366;SDS011;16877;48.810;9.282;2023-03-23T12:37:22;10.80;;;2.77;;
1366;SDS011;16877;48.810;9.282;2023-03-23T12:40:04;2.43;;;1.83;;
1366;SDS011;16877;48.810;9.282;2023-03-23T12:42:48;3.73;;;1.57;;
1366;SDS011;16877;48.810;9.282;2023-03-23T12:45:26;3.00;;;1.90;;
1366;SDS011;16877;48.810;9.282;2023-03-23T12:48:10;3.27;;;1.80;;
1366;SDS011;16877;48.810;9.282;2023-03-23T12:50:42;5.07;;;2.13;;
1366;SDS011;16877;48.810;9.282;2023-03-23T12:53:13;2.90;;;2.00;;
1366;SDS011;16877;48.810;9.282;2023-03-23T12:55:47;3.10;;;1.40;;
1366;SDS011;16877;48.810;9.282;2023-03-23T12:58:20;2.60;;;1.67;;
1366;SDS011;16877;48.810;9.282;2023-03-23T13:00:57;5.90;;;2.30;;
1366;SDS011;16877;48.810;9.282;2023-03-23T13:03:30;5.87;;;2.27;;
1366;SDS011;16877;48.810;9.282;2023-03-23T13:06:04;4.80;;;1.73;;
1366;SDS011;16877;48.810;9.282;2023-03-23T13:08:35;26.50;;;4.27;;
1366;SDS011;16877;48.810;9.282;2023-03-23T13:11:11;16.63;;;3.70;;
1366;SDS011;16877;48.810;9.282;2023-03-23T13:13:44;4.53;;;2.03;;
1366;SDS011;16877;48.810;9.282;2023-03-23T13:16:19;4.50;;;2.03;;
1366;SDS011;16877;48.810;9.282;2023-03-23T13:18:57;3.47;;;1.80;;
1366;SDS011;16877;48.810;9.282;2023-03-23T13:21:31;3.40;;;2.03;;
1366;SDS011;16877;48.810;9.282;2023-03-23T13:24:01;3.90;;;2.27;;
1366;SDS011;16877;48.810;9.282;2023-03-23T13:26:36;3.17;;;1.47;;
1366;SDS011;16877;48.810;9.282;2023-03-23T13:29:05;3.03;;;2.10;;
1366;SDS011;16877;48.810;9.282;2023-03-23T13:31:41;2.67;;;1.60;;
1366;SDS011;16877;48.810;9.282;2023-03-23T13:34:12;4.60;;;1.83;;
1366;SDS011;16877;48.810;9.282;2023-03-23T13:36:43;2.60;;;1.33;;
1366;SDS011;16877;48.810;9.282;2023-03-23T13:39:19;3.60;;;1.80;;
1366;SDS011;16877;48.810;9.282;2023-03-23T13:41:59;3.57;;;1.80;;
1366;SDS011;16877;48.810;9.282;2023-03-23T13:44:40;6.30;;;2.10;;
1366;SDS011;16877;48.810;9.282;2023-03-23T13:47:24;3.40;;;2.03;;
1366;SDS011;16877;48.810;9.282;2023-03-23T13:49:54;4.10;;;2.20;;
1366;SDS011;16877;48.810;9.282;2023-03-23T13:52:24;4.63;;;1.97;;
1366;SDS011;16877;48.810;9.282;2023-03-23T13:55:17;3.03;;;1.70;;
1366;SDS011;16877;48.810;9.282;2023-03-23T13:57:57;2.73;;;1.40;;
1366;SDS011;16877;48.810;9.282;2023-03-23T14:00:37;2.70;;;1.80;;
1366;SDS011;16877;48.810;9.282;2023-03-23T14:03:14;4.67;;;2.23;;
1366;SDS011;16877;48.810;9.282;2023-03-23T14:05:45;3.63;;;2.10;;
1366;SDS011;16877;48.810;9.282;2023-03-23T14:08:22;3.57;;;2.20;;
1366;SDS011;16877;48.810;9.282;2023-03-23T14:10:53;3.57;;;2.20;;
1366;SDS011;16877;48.810;9.282;2023-03-23T14:13:25;4.23;;;2.07;;
1366;SDS011;16877;48.810;9.282;2023-03-23T14:15:58;3.00;;;1.90;;
1366;SDS011;16877;48.810;9.282;2023-03-23T14:18:34;3.20;;;2.00;;
1366;SDS011;16877;48.810;9.282;2023-03-23T14:21:04;2.50;;;2.10;;
1366;SDS011;16877;48.810;9.282;2023-03-23T14:23:40;4.83;;;2.60;;
1366;SDS011;16877;48.810;9.282;2023-03-23T14:26:09;2.90;;;1.97;;
1366;SDS011;16877;48.810;9.282;2023-03-23T14:28:45;3.37;;;2.23;;
1366;SDS011;16877;48.810;9.282;2023-03-23T14:31:18;2.93;;;2.10;;
1366;SDS011;16877;48.810;9.282;2023-03-23T14:33:49;3.27;;;1.80;;
1366;SDS011;16877;48.810;9.282;2023-03-23T14:36:19;5.67;;;1.90;;
1366;SDS011;16877;48.810;9.282;2023-03-23T14:38:48;3.93;;;2.23;;
1366;SDS011;16877;48.810;9.282;2023-03-23T14:41:22;2.50;;;1.60;;
1366;SDS011;16877;48.810;9.282;2023-03-23T14:43:50;2.67;;;1.90;;
1366;SDS011;16877;48.810;9.282;2023-03-23T14:46:17;3.40;;;2.10;;
1366;SDS011;16877;48.810;9.282;2023-03-23T14:48:44;2.87;;;1.87;;
1366;SDS011;16877;48.810;9.282;2023-03-23T14:51:17;4.57;;;2.40;;
1366;SDS011;16877;48.810;9.282;2023-03-23T14:53:45;2.83;;;1.83;;
1366;SDS011;16877;48.810;9.282;2023-03-23T14:56:17;3.57;;;1.97;;
1366;SDS011;16877;48.810;9.282;2023-03-23T14:58:48;2.80;;;1.80;;
1366;SDS011;16877;48.810;9.282;2023-03-23T15:01:17;2.50;;;1.77;;
1366;SDS011;16877;48.810;9.282;2023-03-23T15:03:49;3.53;;;2.50;;
1366;SDS011;16877;48.810;9.282;2023-03-23T15:06:21;3.27;;;2.20;;
1366;SDS011;16877;48.810;9.282;2023-03-23T15:08:53;3.10;;;2.17;;
1366;SDS011;16877;48.810;9.282;2023-03-23T15:11:23;2.67;;;1.87;;
1366;SDS011;16877;48.810;9.282;2023-03-23T15:13:54;2.63;;;1.70;;
1366;SDS011;16877;48.810;9.282;2023-03-23T15:16:24;3.23;;;2.00;;
1366;SDS011;16877;48.810;9.282;2023-03-23T15:18:53;3.23;;;1.83;;
1366;SDS011;16877;48.810;9.282;2023-03-23T15:21:26;3.23;;;2.10;;
1366;SDS011;16877;48.810;9.282;2023-03-23T15:23:55;2.70;;;1.73;;
1366;SDS011;16877;48.810;9.282;2023-03-23T15:26:24;3.27;;;2.20;;
1366;SDS011;16877;48.810;9.282;2023-03-23T15:29:08;4.07;;;2.27;;
1366;SDS011;16877;48.810;9.282;2023-03-23T15:31:40;4.50;;;1.90;;
1366;SDS011;16877;48.810;9.282;2023-03-23T15:34:11;3.93;;;2.27;;
1366;SDS011;16877;48.810;9.282;2023-03-23T15:36:47;4.17;;;2.40;;
1366;SDS011;16877;48.810;9.282;2023-03-23T15:39:19;3.27;;;2.37;;
1366;SDS011;16877;48.810;9.282;2023-03-23T15:41:47;3.87;;;2.17;;